createdAt,value
2022-09-18T00:00:49.858Z,2.25
2022-09-18T00:03:17.385Z,0.00
2022-09-18T00:05:44.831Z,2.00
2022-09-18T00:08:12.287Z,2.00
2022-09-18T00:10:42.740Z,2.75
2022-09-18T00:13:11.439Z,2.33
2022-09-18T00:15:38.836Z,3.00
2022-09-18T00:18:06.367Z,2.67
2022-09-18T00:20:34.540Z,3.00
2022-09-18T00:23:01.946Z,3.33
2022-09-18T00:25:29.370Z,3.00
2022-09-18T00:27:56.804Z,2.00
2022-09-18T00:30:25.487Z,2.00
2022-09-18T00:32:52.878Z,2.00
2022-09-18T00:35:20.279Z,2.00
2022-09-18T00:37:47.756Z,2.00
2022-09-18T00:40:15.512Z,3.00
2022-09-18T00:42:42.997Z,2.33
2022-09-18T00:45:10.745Z,2.00
2022-09-18T00:47:41.951Z,2.00
2022-09-18T00:50:11.267Z,3.00
2022-09-18T00:52:45.224Z,1.33
2022-09-18T00:55:12.682Z,1.33
2022-09-18T00:57:42.705Z,2.00
2022-09-18T01:00:12.321Z,2.00
2022-09-18T01:02:41.237Z,3.00
2022-09-18T01:05:09.439Z,2.00
2022-09-18T01:07:44.643Z,2.33
2022-09-18T01:10:18.449Z,2.00
2022-09-18T01:12:47.215Z,1.00
2022-09-18T01:15:17.330Z,2.75
2022-09-18T01:17:48.319Z,2.00
2022-09-18T01:20:30.983Z,2.00
2022-09-18T01:23:12.302Z,2.00
2022-09-18T01:25:41.956Z,2.25
2022-09-18T01:28:15.525Z,1.50
2022-09-18T01:30:44.575Z,2.00
2022-09-18T01:33:15.104Z,2.00
2022-09-18T01:35:44.318Z,2.00
2022-09-18T01:38:14.275Z,2.00
2022-09-18T01:40:45.107Z,1.67
2022-09-18T01:43:15.236Z,2.00
2022-09-18T01:45:44.256Z,2.00
2022-09-18T01:48:15.705Z,1.00
2022-09-18T01:50:44.867Z,3.00
2022-09-18T01:53:14.261Z,2.00
2022-09-18T01:55:44.493Z,1.00
2022-09-18T01:58:17.283Z,2.00
2022-09-18T02:00:46.694Z,2.00
2022-09-18T02:03:15.254Z,2.00
2022-09-18T02:05:44.222Z,1.25
2022-09-18T02:08:16.282Z,2.00
2022-09-18T02:10:46.133Z,2.00
2022-09-18T02:13:17.310Z,2.00
2022-09-18T02:15:44.776Z,1.00
2022-09-18T02:18:16.715Z,2.00
2022-09-18T02:20:44.949Z,2.00
2022-09-18T02:23:12.414Z,2.50
2022-09-18T02:25:45.055Z,2.75
2022-09-18T02:28:12.552Z,2.25
2022-09-18T02:30:41.342Z,2.00
2022-09-18T02:33:24.316Z,2.75
2022-09-18T02:35:55.252Z,2.00
2022-09-18T02:38:25.268Z,2.00
2022-09-18T02:40:57.589Z,1.25
2022-09-18T02:43:31.726Z,1.75
2022-09-18T02:46:04.956Z,1.00
2022-09-18T02:48:43.077Z,1.00
2022-09-18T02:51:12.744Z,1.25
2022-09-18T02:53:42.860Z,2.00
2022-09-18T02:56:12.418Z,1.25
2022-09-18T02:58:42.647Z,2.00
2022-09-18T03:01:12.174Z,1.75
2022-09-18T03:03:40.931Z,2.00
2022-09-18T03:06:10.780Z,2.00
2022-09-18T03:08:38.618Z,1.00
2022-09-18T03:11:06.528Z,2.00
2022-09-18T03:13:34.600Z,1.75
2022-09-18T03:16:03.719Z,2.00
2022-09-18T03:18:32.466Z,2.00
2022-09-18T03:21:00.507Z,1.50
2022-09-18T03:23:28.096Z,2.00
2022-09-18T03:26:06.781Z,1.00
2022-09-18T03:28:34.540Z,1.25
2022-09-18T03:31:02.557Z,1.00
2022-09-18T03:33:33.056Z,2.00
2022-09-18T03:36:00.468Z,1.75
2022-09-18T03:38:27.878Z,1.00
2022-09-18T03:40:57.718Z,2.00
2022-09-18T03:43:25.240Z,2.50
2022-09-18T03:45:52.774Z,1.00
2022-09-18T03:48:20.837Z,2.75
2022-09-18T03:50:49.938Z,1.75
2022-09-18T03:53:17.421Z,1.50
2022-09-18T03:56:13.035Z,1.50
2022-09-18T03:59:00.101Z,1.50
2022-09-18T04:01:37.418Z,2.00
2022-09-18T04:04:23.368Z,1.25
2022-09-18T04:07:12.039Z,2.00
2022-09-18T04:09:39.918Z,1.00
2022-09-18T04:12:07.621Z,2.00
2022-09-18T04:14:35.227Z,2.00
2022-09-18T04:17:02.658Z,1.00
2022-09-18T04:19:30.736Z,2.00
2022-09-18T04:21:58.959Z,1.00
2022-09-18T04:24:28.149Z,1.50
2022-09-18T04:26:55.783Z,1.50
2022-09-18T04:29:25.556Z,2.00
2022-09-18T04:31:53.067Z,1.25
2022-09-18T04:34:22.406Z,1.25
2022-09-18T04:36:49.825Z,2.00
2022-09-18T04:39:17.323Z,1.00
2022-09-18T04:41:46.310Z,1.00
2022-09-18T04:44:15.052Z,1.00
2022-09-18T04:46:43.522Z,2.75
2022-09-18T04:49:11.387Z,1.00
2022-09-18T04:51:39.091Z,2.00
2022-09-18T04:54:06.499Z,1.50
2022-09-18T04:56:37.330Z,1.00
2022-09-18T04:59:06.173Z,1.67
2022-09-18T05:01:35.208Z,1.00
2022-09-18T05:04:08.756Z,1.00
2022-09-18T05:06:45.396Z,3.00
2022-09-18T05:09:12.796Z,1.00
2022-09-18T05:11:40.205Z,1.50
2022-09-18T05:14:08.892Z,0.00
2022-09-18T05:16:36.436Z,1.00
2022-09-18T05:19:33.018Z,1.67
2022-09-18T05:22:05.702Z,2.00
2022-09-18T05:24:36.721Z,1.00
2022-09-18T05:27:04.559Z,1.00
2022-09-18T05:29:33.268Z,1.00
2022-09-18T05:32:09.956Z,1.00
2022-09-18T05:34:38.296Z,2.00
2022-09-18T05:37:07.256Z,1.67
2022-09-18T05:39:34.669Z,1.00
2022-09-18T05:42:03.866Z,2.00
2022-09-18T05:44:32.546Z,1.75
2022-09-18T05:47:00.128Z,1.00
2022-09-18T05:49:28.325Z,1.00
2022-09-18T05:51:57.015Z,1.00
2022-09-18T05:54:24.457Z,1.50
2022-09-18T05:56:52.545Z,1.00
2022-09-18T05:59:20.003Z,1.00
2022-09-18T06:01:50.463Z,2.25
2022-09-18T06:04:34.235Z,2.75
2022-09-18T06:07:06.073Z,1.00
2022-09-18T06:09:33.541Z,0.50
2022-09-18T06:12:00.934Z,0.00
2022-09-18T06:14:28.409Z,1.00
2022-09-18T06:17:00.143Z,1.67
2022-09-18T06:19:27.594Z,1.67
2022-09-18T06:21:55.649Z,1.00
2022-09-18T06:24:23.152Z,1.33
2022-09-18T06:27:07.888Z,1.33
2022-09-18T06:29:35.553Z,1.00
2022-09-18T06:32:10.769Z,1.00
2022-09-18T06:34:39.913Z,1.33
2022-09-18T06:37:10.287Z,1.00
2022-09-18T06:39:58.046Z,1.00
2022-09-18T06:42:55.984Z,2.00
2022-09-18T06:45:37.551Z,1.00
2022-09-18T06:48:07.612Z,1.00
2022-09-18T06:50:37.775Z,1.00
2022-09-18T06:53:10.070Z,1.00
2022-09-18T06:55:42.466Z,1.00
2022-09-18T06:58:09.962Z,1.00
2022-09-18T07:00:37.480Z,1.00
2022-09-18T07:03:04.973Z,1.25
2022-09-18T07:05:52.152Z,1.00
2022-09-18T07:08:32.225Z,0.25
2022-09-18T07:11:10.175Z,1.00
2022-09-18T07:13:39.463Z,1.00
2022-09-18T07:16:07.044Z,1.00
2022-09-18T07:18:34.617Z,2.00
2022-09-18T07:21:05.248Z,1.00
2022-09-18T07:23:37.296Z,1.00
2022-09-18T07:26:05.008Z,1.00
2022-09-18T07:28:33.920Z,2.00
2022-09-18T07:31:10.108Z,0.00
2022-09-18T07:33:37.591Z,1.00
2022-09-18T07:36:06.702Z,1.00
2022-09-18T07:38:37.433Z,1.00
2022-09-18T07:41:05.041Z,1.00
2022-09-18T07:43:34.229Z,0.25
2022-09-18T07:46:02.420Z,0.25
2022-09-18T07:48:32.807Z,1.00
2022-09-18T07:51:11.413Z,2.00
2022-09-18T07:53:41.094Z,0.75
2022-09-18T07:56:09.764Z,1.00
2022-09-18T07:58:37.290Z,1.00
2022-09-18T08:01:06.786Z,2.00
2022-09-18T08:03:41.714Z,1.00
2022-09-18T08:06:13.609Z,0.33
2022-09-18T08:08:55.411Z,1.75
2022-09-18T08:11:46.030Z,1.00
2022-09-18T08:14:36.368Z,1.00
2022-09-18T08:17:14.521Z,1.00
2022-09-18T08:20:01.997Z,1.00
2022-09-18T08:22:44.544Z,0.75
2022-09-18T08:25:12.920Z,2.00
2022-09-18T08:27:42.693Z,2.00
2022-09-18T08:30:11.564Z,1.00
2022-09-18T08:32:40.439Z,1.00
2022-09-18T08:35:10.913Z,1.00
2022-09-18T08:37:38.691Z,1.50
2022-09-18T08:40:41.007Z,1.00
2022-09-18T08:43:17.228Z,0.25
2022-09-18T08:45:53.317Z,1.75
2022-09-18T08:48:24.730Z,2.00
2022-09-18T08:50:55.844Z,1.00
2022-09-18T08:53:24.877Z,1.00
2022-09-18T08:56:19.181Z,1.00
2022-09-18T08:58:57.607Z,1.00
2022-09-18T09:01:28.359Z,1.00
2022-09-18T09:04:00.852Z,1.50
2022-09-18T09:06:39.048Z,1.00
2022-09-18T09:09:22.547Z,1.25
2022-09-18T09:11:55.422Z,1.00
2022-09-18T09:14:55.689Z,1.25
2022-09-18T09:17:24.294Z,1.25
2022-09-18T09:19:54.448Z,1.00
2022-09-18T09:22:35.924Z,0.00
2022-09-18T09:25:07.877Z,1.00
2022-09-18T09:27:39.000Z,0.50
2022-09-18T09:30:23.350Z,1.00
2022-09-18T09:33:20.071Z,1.00
2022-09-18T09:36:16.789Z,1.00
2022-09-18T09:38:51.923Z,0.00
2022-09-18T09:41:24.068Z,0.00
2022-09-18T09:43:58.515Z,1.00
2022-09-18T09:46:37.740Z,1.00
2022-09-18T09:49:07.679Z,1.00
2022-09-18T09:51:40.292Z,1.00
2022-09-18T09:54:08.358Z,1.00
2022-09-18T09:56:38.760Z,1.00
2022-09-18T09:59:13.984Z,1.00
2022-09-18T10:01:59.782Z,1.00
2022-09-18T10:04:31.572Z,1.67
2022-09-18T10:07:00.910Z,1.00
2022-09-18T10:09:34.578Z,1.00
2022-09-18T10:12:04.653Z,1.00
2022-09-18T10:14:36.374Z,1.00
2022-09-18T10:17:04.349Z,0.33
2022-09-18T10:19:35.631Z,0.00
2022-09-18T10:22:04.502Z,1.00
2022-09-18T10:24:38.035Z,1.00
2022-09-18T10:27:10.306Z,1.00
2022-09-18T10:29:38.999Z,1.00
2022-09-18T10:32:11.512Z,1.33
2022-09-18T10:34:42.265Z,0.00
2022-09-18T10:37:15.071Z,1.00
2022-09-18T10:39:49.121Z,1.00
2022-09-18T10:42:18.926Z,1.00
2022-09-18T10:44:56.785Z,1.00
2022-09-18T10:47:30.402Z,1.00
2022-09-18T10:49:59.521Z,1.00
2022-09-18T10:52:31.878Z,1.00
2022-09-18T10:55:15.467Z,1.00
2022-09-18T10:58:02.882Z,0.25
2022-09-18T11:00:39.386Z,1.00
2022-09-18T11:03:24.330Z,1.00
2022-09-18T11:05:55.430Z,0.25
2022-09-18T11:08:25.700Z,1.75
2022-09-18T11:11:00.559Z,1.00
2022-09-18T11:13:29.480Z,0.00
2022-09-18T11:15:59.242Z,0.00
2022-09-18T11:18:28.006Z,0.00
2022-09-18T11:20:57.016Z,1.00
2022-09-18T11:23:27.171Z,0.75
2022-09-18T11:26:16.411Z,1.00
2022-09-18T11:28:44.080Z,1.00
2022-09-18T11:31:16.517Z,1.00
2022-09-18T11:33:47.371Z,1.00
2022-09-18T11:36:22.896Z,1.00
2022-09-18T11:38:51.403Z,1.00
2022-09-18T11:41:22.313Z,0.00
2022-09-18T11:43:59.448Z,1.00
2022-09-18T11:46:33.160Z,0.00
2022-09-18T11:49:04.796Z,1.00
2022-09-18T11:51:34.419Z,0.50
2022-09-18T11:54:04.393Z,0.75
2022-09-18T11:56:35.633Z,1.00
2022-09-18T11:59:05.989Z,1.00
2022-09-18T12:01:42.683Z,0.00
2022-09-18T12:04:15.165Z,0.00
2022-09-18T12:06:49.494Z,0.25
2022-09-18T12:09:16.922Z,1.00
2022-09-18T12:11:49.514Z,1.50
2022-09-18T12:14:18.341Z,0.00
2022-09-18T12:17:04.416Z,0.00
2022-09-18T12:19:33.779Z,0.00
2022-09-18T12:22:04.301Z,1.00
2022-09-18T12:24:31.891Z,1.00
2022-09-18T12:27:07.008Z,1.00
2022-09-18T12:29:41.395Z,0.00
2022-09-18T12:32:19.064Z,1.00
2022-09-18T12:34:49.683Z,0.00
2022-09-18T12:37:42.813Z,0.00
2022-09-18T12:40:26.592Z,1.00
2022-09-18T12:42:59.160Z,0.75
2022-09-18T12:45:38.474Z,0.50
2022-09-18T12:48:18.211Z,0.00
2022-09-18T12:50:53.535Z,0.00
2022-09-18T12:53:29.271Z,0.75
2022-09-18T12:56:06.239Z,1.00
2022-09-18T12:58:43.256Z,1.00
2022-09-18T13:01:26.759Z,0.00
2022-09-18T13:03:56.509Z,0.50
2022-09-18T13:06:32.600Z,0.00
2022-09-18T13:09:02.196Z,0.75
2022-09-18T13:11:32.773Z,1.00
2022-09-18T13:14:01.669Z,0.00
2022-09-18T13:16:33.433Z,0.00
2022-09-18T13:19:02.929Z,0.00
2022-09-18T13:21:31.072Z,1.00
2022-09-18T13:23:58.477Z,0.00
2022-09-18T13:26:31.345Z,1.00
2022-09-18T13:28:59.101Z,0.00
2022-09-18T13:31:28.610Z,1.00
2022-09-18T13:33:57.396Z,1.00
2022-09-18T13:36:28.239Z,0.75
2022-09-18T13:38:56.087Z,0.00
2022-09-18T13:41:23.462Z,0.00
2022-09-18T13:43:55.875Z,1.00
2022-09-18T13:46:34.363Z,0.75
2022-09-18T13:49:03.223Z,0.25
2022-09-18T13:51:33.022Z,0.25
2022-09-18T13:54:16.540Z,0.50
2022-09-18T13:57:19.276Z,0.50
2022-09-18T13:59:48.403Z,0.33
2022-09-18T14:02:27.326Z,0.00
2022-09-18T14:05:06.350Z,1.00
2022-09-18T14:07:58.249Z,0.00
2022-09-18T14:10:28.060Z,1.00
2022-09-18T14:13:08.686Z,0.25
2022-09-18T14:15:36.108Z,0.00
2022-09-18T14:18:07.942Z,0.00
2022-09-18T14:20:35.430Z,1.00
2022-09-18T14:23:36.635Z,0.75
2022-09-18T14:26:08.243Z,1.00
2022-09-18T14:28:35.735Z,1.00
2022-09-18T14:31:13.946Z,0.25
2022-09-18T14:33:42.369Z,0.00
2022-09-18T14:36:14.684Z,0.75
2022-09-18T14:38:42.339Z,1.00
2022-09-18T14:41:19.064Z,0.75
2022-09-18T14:43:50.361Z,0.00
2022-09-18T14:46:19.102Z,0.25
2022-09-18T14:48:46.609Z,0.50
2022-09-18T14:51:18.544Z,1.00
2022-09-18T14:53:47.085Z,1.00
2022-09-18T14:56:16.900Z,0.00
2022-09-18T14:58:47.670Z,0.25
2022-09-18T15:01:19.922Z,1.00
2022-09-18T15:03:48.284Z,0.00
2022-09-18T15:06:17.900Z,0.50
2022-09-18T15:08:45.705Z,0.25
2022-09-18T15:11:14.051Z,0.00
2022-09-18T15:13:42.740Z,1.00
2022-09-18T15:16:18.522Z,0.00
2022-09-18T15:18:45.939Z,1.00
2022-09-18T15:21:21.500Z,1.00
2022-09-18T15:23:48.980Z,0.00
2022-09-18T15:26:17.054Z,0.00
2022-09-18T15:28:46.577Z,0.25
2022-09-18T15:31:14.066Z,0.00
2022-09-18T15:33:46.544Z,0.00
2022-09-18T15:36:18.127Z,0.00
2022-09-18T15:38:45.956Z,1.00
2022-09-18T15:41:32.364Z,1.00
2022-09-18T15:44:01.193Z,0.75
2022-09-18T15:46:29.559Z,2.00
2022-09-18T15:48:59.423Z,0.33
2022-09-18T15:51:28.039Z,0.00
2022-09-18T15:54:03.076Z,0.75
2022-09-18T15:56:30.856Z,0.00
2022-09-18T15:58:58.841Z,1.00
2022-09-18T16:01:30.679Z,0.00
2022-09-18T16:04:08.975Z,0.50
2022-09-18T16:06:42.574Z,1.00
2022-09-18T16:09:22.597Z,1.00
2022-09-18T16:11:50.068Z,1.00
2022-09-18T16:14:40.243Z,0.50
2022-09-18T16:17:36.472Z,0.00
2022-09-18T16:20:23.557Z,0.33
2022-09-18T16:22:51.040Z,0.00
2022-09-18T16:25:20.415Z,1.00
2022-09-18T16:27:47.824Z,0.00
2022-09-18T16:30:15.716Z,0.75
2022-09-18T16:32:44.381Z,0.00
2022-09-18T16:35:13.786Z,0.50
2022-09-18T16:37:41.398Z,0.25
2022-09-18T16:40:15.227Z,0.00
2022-09-18T16:42:42.638Z,1.00
2022-09-18T16:45:11.253Z,0.75
2022-09-18T16:47:41.496Z,0.00
2022-09-18T16:50:10.531Z,0.00
2022-09-18T16:52:38.005Z,0.25
2022-09-18T16:55:07.302Z,0.00
2022-09-18T16:57:34.736Z,0.00
2022-09-18T17:00:04.927Z,0.50
2022-09-18T17:02:32.457Z,0.00
2022-09-18T17:05:01.606Z,0.00
2022-09-18T17:07:30.431Z,0.25
2022-09-18T17:10:00.594Z,0.75
2022-09-18T17:12:28.015Z,0.00
2022-09-18T17:14:55.418Z,0.00
2022-09-18T17:17:22.832Z,0.75
2022-09-18T17:19:50.318Z,0.00
2022-09-18T17:22:22.034Z,1.00
2022-09-18T17:24:51.985Z,1.00
2022-09-18T17:27:19.420Z,1.00
2022-09-18T17:29:46.986Z,0.33
2022-09-18T17:32:14.548Z,1.00
2022-09-18T17:34:43.452Z,0.00
2022-09-18T17:37:10.964Z,1.00
2022-09-18T17:39:38.420Z,0.00
2022-09-18T17:42:07.324Z,0.00
2022-09-18T17:44:35.356Z,0.00
2022-09-18T17:47:03.112Z,0.00
2022-09-18T17:49:31.191Z,1.00
2022-09-18T17:51:58.632Z,0.75
2022-09-18T17:54:26.087Z,0.00
2022-09-18T17:56:53.540Z,0.00
2022-09-18T17:59:22.327Z,0.00
2022-09-18T18:01:50.473Z,0.00
2022-09-18T18:04:18.036Z,0.00
2022-09-18T18:06:47.526Z,0.00
2022-09-18T18:09:15.136Z,0.00
2022-09-18T18:11:44.163Z,0.00
2022-09-18T18:14:12.178Z,0.25
2022-09-18T18:16:41.290Z,0.25
2022-09-18T18:19:12.032Z,0.00
2022-09-18T18:21:40.274Z,0.00
2022-09-18T18:24:09.807Z,0.50
2022-09-18T18:26:37.675Z,0.25
2022-09-18T18:29:06.428Z,2.00
2022-09-18T18:31:34.009Z,0.00
2022-09-18T18:34:02.844Z,0.00
2022-09-18T18:36:31.058Z,1.00
2022-09-18T18:38:59.132Z,0.00
2022-09-18T18:41:27.967Z,0.50
2022-09-18T18:43:56.219Z,0.00
2022-09-18T18:46:24.374Z,0.25
2022-09-18T18:48:54.824Z,0.00
2022-09-18T18:51:24.060Z,0.00
2022-09-18T18:53:55.148Z,0.50
2022-09-18T18:56:22.858Z,0.00
2022-09-18T18:58:50.591Z,1.00
2022-09-18T19:01:18.782Z,0.00
2022-09-18T19:03:51.091Z,0.00
2022-09-18T19:06:18.638Z,0.00
2022-09-18T19:08:47.881Z,0.25
2022-09-18T19:11:15.964Z,0.75
2022-09-18T19:13:44.514Z,0.25
2022-09-18T19:16:12.341Z,0.00
2022-09-18T19:18:40.007Z,0.50
2022-09-18T19:21:07.921Z,0.00
2022-09-18T19:23:35.556Z,0.67
2022-09-18T19:26:04.395Z,0.00
2022-09-18T19:28:31.813Z,0.50
2022-09-18T19:31:03.969Z,1.00
2022-09-18T19:33:31.926Z,0.00
2022-09-18T19:36:03.207Z,0.00
2022-09-18T19:38:32.702Z,0.00
2022-09-18T19:41:00.192Z,0.75
2022-09-18T19:43:30.937Z,0.00
2022-09-18T19:45:58.439Z,1.00
2022-09-18T19:48:26.767Z,0.00
2022-09-18T19:50:54.480Z,0.00
2022-09-18T19:53:22.146Z,0.75
2022-09-18T19:55:49.658Z,0.00
2022-09-18T19:58:17.271Z,0.50
2022-09-18T20:00:46.034Z,0.00
2022-09-18T20:03:14.493Z,0.00
2022-09-18T20:05:42.330Z,0.75
2022-09-18T20:08:09.813Z,0.00
2022-09-18T20:10:38.624Z,0.00
2022-09-18T20:13:06.219Z,0.25
2022-09-18T20:15:33.670Z,0.00
2022-09-18T20:18:02.420Z,0.00
2022-09-18T20:20:30.316Z,0.00
2022-09-18T20:22:57.777Z,0.00
2022-09-18T20:25:25.930Z,0.00
2022-09-18T20:27:53.370Z,0.25
2022-09-18T20:30:21.366Z,0.00
2022-09-18T20:32:48.872Z,0.00
2022-09-18T20:35:18.258Z,0.00
2022-09-18T20:37:45.755Z,0.00
2022-09-18T20:40:13.338Z,0.00
2022-09-18T20:42:40.817Z,1.50
2022-09-18T20:45:08.688Z,1.00
2022-09-18T20:47:36.898Z,0.00
2022-09-18T20:50:06.717Z,0.00
2022-09-18T20:52:39.231Z,0.00
2022-09-18T20:55:08.770Z,0.00
2022-09-18T20:57:36.940Z,1.00
2022-09-18T21:00:05.353Z,0.00
2022-09-18T21:02:35.294Z,0.00
2022-09-18T21:05:04.243Z,1.00
2022-09-18T21:07:32.338Z,0.00
2022-09-18T21:10:01.343Z,0.00
2022-09-18T21:12:29.206Z,0.00
2022-09-18T21:14:56.651Z,0.00
2022-09-18T21:17:24.162Z,0.00
2022-09-18T21:19:51.609Z,0.00
2022-09-18T21:22:19.110Z,0.00
2022-09-18T21:24:46.710Z,0.00
2022-09-18T21:27:15.473Z,0.00
2022-09-18T21:29:42.933Z,0.33
2022-09-18T21:32:12.012Z,0.00
2022-09-18T21:34:44.015Z,0.00
2022-09-18T21:37:12.079Z,0.00
2022-09-18T21:39:39.960Z,0.00
2022-09-18T21:42:08.228Z,0.00
2022-09-18T21:44:37.671Z,0.00
2022-09-18T21:47:06.192Z,0.00
2022-09-18T21:49:33.636Z,0.00
2022-09-18T21:52:02.060Z,0.00
2022-09-18T21:54:30.243Z,0.00
2022-09-18T21:56:57.659Z,0.75
2022-09-18T21:59:26.095Z,0.00
2022-09-18T22:01:55.379Z,0.00
2022-09-18T22:04:23.087Z,0.00
2022-09-18T22:06:50.554Z,0.00
2022-09-18T22:09:19.941Z,1.00
2022-09-18T22:11:47.871Z,0.00
2022-09-18T22:14:16.731Z,1.00
2022-09-18T22:16:45.539Z,0.00
2022-09-18T22:19:14.218Z,0.00
2022-09-18T22:21:42.891Z,0.00
2022-09-18T22:24:11.563Z,0.00
2022-09-18T22:26:39.825Z,0.00
2022-09-18T22:29:07.921Z,0.00
2022-09-18T22:31:35.476Z,0.00
2022-09-18T22:34:02.967Z,0.00
2022-09-18T22:36:31.680Z,0.00
2022-09-18T22:38:59.087Z,0.00
2022-09-18T22:41:26.578Z,0.00
2022-09-18T22:43:54.925Z,0.00
2022-09-18T22:46:22.498Z,1.00
2022-09-18T22:48:50.148Z,0.00
2022-09-18T22:51:18.441Z,0.00
2022-09-18T22:53:50.095Z,0.00
2022-09-18T22:56:17.704Z,0.00
2022-09-18T22:58:45.148Z,0.00
2022-09-18T23:01:13.638Z,0.00
2022-09-18T23:03:41.051Z,0.00
2022-09-18T23:06:08.873Z,0.00
2022-09-18T23:08:36.315Z,0.00
2022-09-18T23:11:07.039Z,0.50
2022-09-18T23:13:35.228Z,0.00
2022-09-18T23:16:04.481Z,0.00
2022-09-18T23:18:31.939Z,0.00
2022-09-18T23:21:03.264Z,0.00
2022-09-18T23:23:31.449Z,0.00
2022-09-18T23:26:05.248Z,0.00
2022-09-18T23:28:33.952Z,0.00
2022-09-18T23:31:05.819Z,0.00
2022-09-18T23:33:33.262Z,0.00
2022-09-18T23:36:08.460Z,0.50
2022-09-18T23:38:35.952Z,0.00
2022-09-18T23:41:05.643Z,0.00
2022-09-18T23:43:33.050Z,0.00
2022-09-18T23:46:00.507Z,0.00
2022-09-18T23:48:28.270Z,0.00
2022-09-18T23:50:55.854Z,0.00
2022-09-18T23:53:24.117Z,0.00
2022-09-18T23:55:51.559Z,0.00
2022-09-18T23:58:20.229Z,0.25
